Forside
METAR-TAF:

METAR-TAF

Lufthavne :

Xi'an, Kina

Breddekreds: 34-26N, længdekreds: 108-45E, højde: 479 m

Aktuelle vejr

Denne rapport blev lavet for 47 minutter siden, kl. 00:00 UTC
Vind 2 kt fra varierende retninger
Temperatur 4°C
Fugtighed 60%
Tryk 1023 hPa
Sigt: 3000 m
tåge/dis

METAR: ZLXY 240000Z VRB01MPS 3000 HZ NSC 04/M03 Q1023 BECMG TL0040 2800 HZ

Tid: 08:47 (00:47 UTC)

Vejrudsigter

Denne rapport blev lavet for 5 timer og 35 minutter siden, kl. 19:12 UTC
Foreløbig gælder fra 24 på 00 UTC til 24 på 24 UTC
Vind 6 kt fra østnordøst
Sigt: 3000 m
tåge/dis

TAF: ZLXY 231912Z 2400/2424 06003MPS 3000 HZ NSC TX11/2407Z TN00/2422Z

Vejrobservationer og prognoser fra mere end 4000 lufthavne (METAR og TAF).

De gule og røde prikker repræsenterer de meteorologiske stationer.

Flyt musen over at se navnet på stationen.

Så klik over at se vejr observationer og prognoser.

At skifte det kort: Klik på de grønne knapper med et sort kors for at zoome ind; på den grønne knap med en bindestreg for at zoome ud; eller på de grønne pile for tilstødende kort.


METAR-TAF: